Fire Weather Observation
Issued by NWS Grand Junction, CO

Home | Current Version | Previous Version | Text Only | Print | Product List | Glossary Off
Versions: 1 2 3 4 5 6 7 8 9 10 11 12 13 14 15 16 17 18 19 20 21 22 23 24 25 26 27 28 29 30 31 32 33 34 35

000
SHUS65 KGJT 192017
FWOGJT

DAILY FIRE WEATHER OBSERVATION
NATIONAL WEATHER SERVICE GRAND JUNCTION CO
212 PM MDT FRI AUG 19 2016

STATE OF THE WEATHER (W)               0
DRY BULB TEMPERATURE                   84   DEGREES FAHRENHEIT
RELATIVE HUMIDITY (RH)                 24   PERCENT
LIGHTNING ACTIVITY LEVEL
  (LAL - MIDNIGHT TO 2 PM)             2
WIND DIRECTION                         C    DEGREES (C IF CALM)
WIND SPEED                             0    MPH
MAX TEMP (2 PM - 2 PM)                 88   DEGREES FAHRENHEIT
MIN TEMP (2 PM - 2 PM)                 54   DEGREES FAHRENHEIT
MAX RH (2 PM - 2 PM)                   69   PERCENT
MIN RH (2 PM - 2 PM)                   21   PERCENT
PCPN DURATION                          0.8  HOURS
PCPN AMT (2 PM - 2 PM)                 T    INCHES
LAL (2 PM - 2 PM)                      4

$$

METAR KGJT 191953Z VRB03KT 10SM CLR 29/06 A3002 RMK AO2 LTG DSNT
      N AND S SLP098 CB DSNT N AND S T02890061



USA.gov is the U.S. government's official web portal to all federal, state and local government web resources and services.